createdAt,value
2022-08-05T00:01:36.587Z,98.00
2022-08-05T00:04:17.698Z,98.10
2022-08-05T00:06:47.534Z,98.10
2022-08-05T00:09:23.765Z,98.20
2022-08-05T00:11:56.093Z,98.30
2022-08-05T00:14:29.192Z,98.30
2022-08-05T00:17:03.012Z,98.30
2022-08-05T00:19:33.523Z,98.40
2022-08-05T00:22:12.730Z,98.50
2022-08-05T00:24:42.629Z,98.60
2022-08-05T00:27:16.635Z,98.70
2022-08-05T00:29:46.152Z,98.80
2022-08-05T00:32:17.119Z,98.80
2022-08-05T00:35:03.928Z,98.90
2022-08-05T00:37:53.022Z,99.10
2022-08-05T00:40:28.120Z,99.30
2022-08-05T00:42:59.224Z,99.40
2022-08-05T00:45:38.473Z,99.30
2022-08-05T00:48:10.325Z,99.40
2022-08-05T00:50:41.189Z,99.60
2022-08-05T00:54:01.110Z,99.80
2022-08-05T00:55:59.754Z,99.90
2022-08-05T00:58:29.027Z,99.90
2022-08-05T01:00:57.793Z,99.90
2022-08-05T01:03:30.861Z,99.90
2022-08-05T01:06:03.952Z,99.90
2022-08-05T01:08:43.393Z,99.90
2022-08-05T01:11:22.567Z,99.90
2022-08-05T01:14:01.965Z,99.90
2022-08-05T01:16:35.681Z,99.90
2022-08-05T01:19:17.515Z,99.90
2022-08-05T01:22:24.378Z,99.90
2022-08-05T01:25:08.582Z,99.90
2022-08-05T01:28:10.086Z,99.90
2022-08-05T01:30:52.412Z,99.90
2022-08-05T01:33:29.567Z,99.90
2022-08-05T01:36:13.118Z,99.90
2022-08-05T01:38:49.789Z,99.90
2022-08-05T01:41:25.693Z,99.90
2022-08-05T01:43:56.383Z,99.90
2022-08-05T01:46:46.169Z,99.90
2022-08-05T01:49:22.901Z,99.90
2022-08-05T01:51:58.433Z,99.90
2022-08-05T01:54:33.099Z,99.90
2022-08-05T01:58:09.366Z,99.90
2022-08-05T01:59:56.334Z,99.90
2022-08-05T02:02:32.365Z,99.90
2022-08-05T02:05:11.822Z,99.90
2022-08-05T02:07:56.332Z,99.90
2022-08-05T02:10:34.929Z,99.90
2022-08-05T02:13:15.732Z,99.90
2022-08-05T02:15:48.790Z,99.90
2022-08-05T02:18:31.307Z,99.90
2022-08-05T02:21:15.134Z,99.90
2022-08-05T02:23:46.343Z,99.90
2022-08-05T02:26:17.402Z,99.90
2022-08-05T02:28:47.725Z,99.90
2022-08-05T02:31:21.091Z,99.90
2022-08-05T02:33:58.173Z,99.90
2022-08-05T02:36:31.649Z,99.90
2022-08-05T02:39:03.038Z,99.90
2022-08-05T02:41:42.948Z,99.90
2022-08-05T02:44:25.895Z,99.90
2022-08-05T02:47:00.510Z,99.90
2022-08-05T02:49:37.049Z,99.90
2022-08-05T02:52:11.427Z,99.90
2022-08-05T02:54:42.757Z,99.90
2022-08-05T02:58:10.467Z,99.90
2022-08-05T03:00:12.835Z,99.90
2022-08-05T03:02:43.125Z,99.90
2022-08-05T03:06:57.159Z,99.90
2022-08-05T03:08:26.829Z,99.90
2022-08-05T03:11:53.495Z,99.90
2022-08-05T03:13:50.967Z,99.90
2022-08-05T03:16:21.161Z,99.90
2022-08-05T03:18:49.808Z,99.90
2022-08-05T03:21:19.804Z,99.90
2022-08-05T03:23:48.870Z,99.90
2022-08-05T03:26:31.391Z,99.90
2022-08-05T03:29:00.761Z,99.90
2022-08-05T03:31:57.007Z,99.90
2022-08-05T03:34:24.468Z,99.90
2022-08-05T03:36:54.951Z,99.90
2022-08-05T03:39:27.291Z,99.90
2022-08-05T03:41:56.605Z,99.90
2022-08-05T03:44:25.284Z,99.90
2022-08-05T03:46:57.726Z,99.90
2022-08-05T03:49:30.889Z,99.90
2022-08-05T03:52:39.132Z,99.90
2022-08-05T03:56:05.165Z,99.90
2022-08-05T03:58:13.343Z,99.90
2022-08-05T04:00:44.242Z,99.90
2022-08-05T04:03:28.421Z,99.90
2022-08-05T04:05:59.452Z,99.90
2022-08-05T04:08:57.917Z,99.90
2022-08-05T04:11:47.722Z,99.90
2022-08-05T04:14:30.420Z,99.90
2022-08-05T04:17:02.086Z,99.90
2022-08-05T04:19:31.871Z,99.90
2022-08-05T04:22:08.042Z,99.90
2022-08-05T04:24:44.161Z,99.90
2022-08-05T04:27:15.448Z,99.90
2022-08-05T04:29:44.978Z,99.90
2022-08-05T04:32:13.603Z,99.90
2022-08-05T04:34:44.275Z,99.90
2022-08-05T04:37:13.559Z,99.90
2022-08-05T04:39:42.089Z,99.90
2022-08-05T04:42:10.891Z,99.90
2022-08-05T04:44:41.389Z,99.90
2022-08-05T04:47:10.444Z,99.90
2022-08-05T04:50:02.769Z,99.90
2022-08-05T04:52:33.397Z,99.90
2022-08-05T04:55:14.271Z,99.90
2022-08-05T04:57:47.678Z,99.90
2022-08-05T05:00:18.971Z,99.90
2022-08-05T05:02:53.195Z,99.90
2022-08-05T05:05:28.394Z,99.90
2022-08-05T05:08:01.949Z,99.90
2022-08-05T05:10:33.358Z,99.90
2022-08-05T05:13:03.954Z,99.90
2022-08-05T05:16:01.804Z,99.90
2022-08-05T05:18:28.277Z,99.90
2022-08-05T05:20:59.872Z,99.90
2022-08-05T05:23:39.465Z,99.90
2022-08-05T05:26:17.186Z,99.90
2022-08-05T05:28:45.789Z,99.90
2022-08-05T05:34:02.162Z,99.90
2022-08-05T05:36:32.014Z,99.90
2022-08-05T05:39:00.493Z,99.90
2022-08-05T05:41:40.319Z,99.90
2022-08-05T05:44:35.761Z,99.90
2022-08-05T05:47:21.558Z,99.90
2022-08-05T05:49:57.008Z,99.90
2022-08-05T05:52:33.168Z,99.90
2022-08-05T05:55:13.260Z,99.90
2022-08-05T05:57:52.793Z,99.90
2022-08-05T06:00:27.733Z,99.90
2022-08-05T06:03:39.980Z,99.90
2022-08-05T06:05:54.304Z,99.90
2022-08-05T06:08:32.686Z,99.90
2022-08-05T06:11:01.483Z,99.90
2022-08-05T06:13:29.888Z,99.90
2022-08-05T06:16:28.742Z,99.90
2022-08-05T06:18:59.909Z,99.90
2022-08-05T06:21:35.945Z,99.90
2022-08-05T06:24:11.627Z,99.90
2022-08-05T06:26:51.439Z,99.90
2022-08-05T06:29:45.398Z,99.90
2022-08-05T06:32:20.872Z,99.90
2022-08-05T06:34:53.585Z,99.90
2022-08-05T06:37:56.788Z,99.90
2022-08-05T06:40:18.531Z,99.90
2022-08-05T06:42:51.558Z,99.90
2022-08-05T06:45:44.967Z,99.90
2022-08-05T06:48:36.841Z,99.90
2022-08-05T06:51:00.311Z,99.90
2022-08-05T06:53:29.446Z,99.90
2022-08-05T06:55:59.466Z,99.90
2022-08-05T06:58:34.698Z,99.90
2022-08-05T07:01:07.931Z,99.90
2022-08-05T07:03:56.804Z,99.90
2022-08-05T07:06:27.669Z,99.90
2022-08-05T07:09:04.347Z,99.90
2022-08-05T07:11:36.887Z,99.90
2022-08-05T07:14:30.328Z,99.90
2022-08-05T07:18:00.090Z,99.90
2022-08-05T07:22:42.732Z,99.90
2022-08-05T07:25:22.649Z,99.90
2022-08-05T07:28:05.939Z,99.90
2022-08-05T07:30:39.823Z,99.90
2022-08-05T07:33:16.155Z,99.90
2022-08-05T07:36:03.256Z,99.90
2022-08-05T07:38:43.086Z,99.90
2022-08-05T07:41:35.245Z,99.90
2022-08-05T07:44:14.106Z,99.90
2022-08-05T07:46:49.284Z,99.90
2022-08-05T07:49:19.242Z,99.90
2022-08-05T07:51:54.399Z,99.90
2022-08-05T07:54:33.349Z,99.90
2022-08-05T07:57:41.608Z,99.90
2022-08-05T08:00:02.839Z,99.90
2022-08-05T08:03:15.363Z,99.90
2022-08-05T08:05:40.599Z,99.90
2022-08-05T08:08:14.306Z,99.90
2022-08-05T08:10:44.228Z,99.90
2022-08-05T08:13:29.125Z,99.90
2022-08-05T08:16:35.650Z,99.90
2022-08-05T08:19:08.421Z,99.90
2022-08-05T08:22:28.614Z,99.90
2022-08-05T08:25:15.822Z,99.90
2022-08-05T08:27:51.108Z,99.90
2022-08-05T08:30:47.375Z,99.90
2022-08-05T08:33:28.340Z,99.90
2022-08-05T08:36:40.183Z,99.90
2022-08-05T08:39:03.746Z,99.90
2022-08-05T08:41:52.727Z,99.90
2022-08-05T08:45:20.237Z,99.90
2022-08-05T08:47:47.801Z,99.90
2022-08-05T08:51:22.010Z,99.60
2022-08-05T08:53:38.127Z,99.30
2022-08-05T08:56:19.531Z,98.70
2022-08-05T08:58:52.229Z,98.50
2022-08-05T09:01:23.137Z,98.90
2022-08-05T09:03:55.172Z,98.20
2022-08-05T09:06:28.204Z,96.50
2022-08-05T09:09:06.378Z,95.10
2022-08-05T09:12:20.652Z,93.60
2022-08-05T09:15:05.587Z,92.30
2022-08-05T09:17:50.068Z,87.60
2022-08-05T09:20:36.475Z,85.00
2022-08-05T09:23:19.528Z,81.90
2022-08-05T09:25:59.890Z,82.00
2022-08-05T09:28:48.545Z,81.80
2022-08-05T09:32:45.976Z,80.40
2022-08-05T09:35:05.118Z,75.20
2022-08-05T09:38:16.513Z,73.60
2022-08-05T09:41:05.465Z,70.40
2022-08-05T09:43:56.743Z,70.50
2022-08-05T09:46:28.511Z,71.60
2022-08-05T09:49:54.354Z,73.30
2022-08-05T09:52:24.158Z,74.50
2022-08-05T09:55:58.061Z,77.00
2022-08-05T09:58:17.781Z,78.30
2022-08-05T10:01:00.618Z,79.30
2022-08-05T10:03:56.797Z,79.40
2022-08-05T10:06:23.236Z,82.00
2022-08-05T10:08:57.142Z,81.10
2022-08-05T10:11:45.715Z,79.70
2022-08-05T10:14:24.456Z,76.60
2022-08-05T10:17:37.949Z,72.50
2022-08-05T10:20:12.299Z,70.70
2022-08-05T10:23:03.725Z,69.20
2022-08-05T10:25:53.302Z,65.20
2022-08-05T10:28:30.282Z,62.20
2022-08-05T10:32:52.722Z,60.50
2022-08-05T10:33:54.329Z,60.20
2022-08-05T10:36:26.232Z,58.60
2022-08-05T10:39:10.068Z,57.60
2022-08-05T10:41:48.418Z,55.60
2022-08-05T10:44:29.217Z,57.10
2022-08-05T10:46:58.326Z,54.30
2022-08-05T10:50:20.519Z,54.70
2022-08-05T10:52:54.099Z,55.90
2022-08-05T10:55:32.736Z,53.90
2022-08-05T10:58:14.922Z,53.00
2022-08-05T11:00:55.389Z,52.60
2022-08-05T11:04:30.901Z,51.00
2022-08-05T11:10:27.263Z,49.60
2022-08-05T11:13:01.551Z,49.10
2022-08-05T11:16:16.850Z,48.80
2022-08-05T11:20:10.932Z,49.50
2022-08-05T11:22:43.143Z,49.60
2022-08-05T11:26:05.274Z,50.60
2022-08-05T11:29:12.245Z,53.40
2022-08-05T11:31:56.448Z,53.10
2022-08-05T11:34:38.963Z,56.70
2022-08-05T11:38:28.357Z,57.90
2022-08-05T11:40:03.401Z,60.50
2022-08-05T11:42:38.046Z,62.70
2022-08-05T11:45:23.118Z,65.00
2022-08-05T11:48:01.576Z,65.20
2022-08-05T11:50:57.024Z,67.40
2022-08-05T11:53:25.629Z,68.90
2022-08-05T11:55:58.584Z,70.30
2022-08-05T11:58:31.449Z,70.00
2022-08-05T12:01:08.459Z,71.20
2022-08-05T12:03:44.037Z,72.20
2022-08-05T12:06:29.518Z,71.30
2022-08-05T12:09:00.225Z,70.60
2022-08-05T12:11:40.335Z,71.90
2022-08-05T12:14:22.687Z,73.00
2022-08-05T12:18:02.914Z,72.70
2022-08-05T12:20:27.063Z,73.60
2022-08-05T12:23:09.464Z,73.80
2022-08-05T12:25:50.985Z,73.10
2022-08-05T12:28:32.978Z,71.70
2022-08-05T12:31:04.180Z,73.30
2022-08-05T12:33:37.189Z,74.40
2022-08-05T12:36:09.347Z,74.60
2022-08-05T12:38:46.507Z,73.80
2022-08-05T12:41:16.910Z,73.40
2022-08-05T12:44:04.394Z,74.40
2022-08-05T12:46:34.576Z,73.10
2022-08-05T12:49:20.843Z,73.70
2022-08-05T12:52:14.292Z,74.10
2022-08-05T12:54:51.296Z,75.00
2022-08-05T12:57:23.187Z,75.80
2022-08-05T13:01:58.386Z,76.00
2022-08-05T13:02:50.863Z,74.10
2022-08-05T13:05:26.042Z,73.00
2022-08-05T13:08:08.765Z,74.40
2022-08-05T13:10:50.609Z,75.10
2022-08-05T13:14:04.785Z,75.70
2022-08-05T13:16:16.810Z,76.00
2022-08-05T13:18:55.051Z,76.10
2022-08-05T13:21:58.547Z,74.60
2022-08-05T13:24:57.763Z,75.60
2022-08-05T13:27:35.541Z,75.00
2022-08-05T13:30:35.941Z,75.60
2022-08-05T13:33:01.325Z,76.60
2022-08-05T13:35:47.053Z,76.90
2022-08-05T13:38:30.650Z,77.40
2022-08-05T13:41:06.427Z,77.50
2022-08-05T13:43:45.924Z,76.60
2022-08-05T13:47:01.665Z,76.80
2022-08-05T13:49:15.474Z,76.90
2022-08-05T13:51:46.263Z,77.00
2022-08-05T13:54:32.141Z,76.70
2022-08-05T13:57:02.130Z,76.70
2022-08-05T13:59:31.015Z,76.90
2022-08-05T14:02:32.222Z,76.60
2022-08-05T14:05:15.275Z,75.90
2022-08-05T14:08:03.127Z,76.60
2022-08-05T14:10:38.966Z,76.40
2022-08-05T14:13:15.458Z,76.30
2022-08-05T14:16:08.320Z,76.30
2022-08-05T14:18:33.777Z,75.20
2022-08-05T14:22:07.065Z,75.00
2022-08-05T14:23:57.070Z,74.50
2022-08-05T14:27:08.543Z,75.20
2022-08-05T14:29:52.230Z,75.70
2022-08-05T14:32:28.005Z,76.20
2022-08-05T14:34:57.691Z,76.90
2022-08-05T14:37:47.358Z,76.80
2022-08-05T14:40:17.056Z,77.30
2022-08-05T14:42:51.256Z,76.50
2022-08-05T14:45:20.642Z,76.30
2022-08-05T14:48:32.425Z,77.50
2022-08-05T14:51:08.425Z,77.50
2022-08-05T14:53:44.278Z,78.90
2022-08-05T14:56:13.517Z,78.40
2022-08-05T14:58:47.743Z,77.60
2022-08-05T15:01:49.230Z,78.00
2022-08-05T15:05:14.430Z,79.20
2022-08-05T15:08:10.826Z,79.30
2022-08-05T15:11:13.711Z,79.20
2022-08-05T15:13:46.619Z,80.10
2022-08-05T15:16:19.805Z,81.70
2022-08-05T15:18:57.721Z,81.70
2022-08-05T15:21:38.460Z,81.70
2022-08-05T15:24:16.244Z,82.00
2022-08-05T15:26:45.382Z,82.10
2022-08-05T15:29:20.264Z,82.30
2022-08-05T15:31:52.828Z,81.20
2022-08-05T15:34:32.203Z,80.30
2022-08-05T15:38:33.027Z,80.90
2022-08-05T15:41:01.708Z,80.80
2022-08-05T15:43:10.900Z,81.60
2022-08-05T15:46:07.858Z,81.90
2022-08-05T15:48:37.909Z,81.30
2022-08-05T15:52:12.738Z,81.70
2022-08-05T15:54:16.865Z,81.90
2022-08-05T15:59:27.886Z,80.90
2022-08-05T16:03:01.773Z,81.70
2022-08-05T16:05:41.817Z,82.60
2022-08-05T16:08:16.157Z,82.50
2022-08-05T16:14:58.526Z,83.20
2022-08-05T16:18:28.956Z,84.40
2022-08-05T16:22:34.048Z,84.20
2022-08-05T16:43:17.339Z,86.20
2022-08-05T16:46:05.826Z,86.30
2022-08-05T16:49:51.215Z,86.90
2022-08-05T17:01:54.221Z,87.50
2022-08-05T19:46:57.092Z,95.80
2022-08-05T19:49:28.995Z,95.90
2022-08-05T19:52:08.682Z,95.90
2022-08-05T19:56:14.632Z,95.70
2022-08-05T19:58:28.889Z,95.70
2022-08-05T20:00:59.007Z,95.80
2022-08-05T20:07:13.062Z,96.10
2022-08-05T20:09:59.602Z,95.90
2022-08-05T20:13:01.217Z,96.10
2022-08-05T20:15:51.819Z,96.30
2022-08-05T20:18:36.316Z,96.30
2022-08-05T20:21:06.575Z,96.50
2022-08-05T20:23:53.357Z,96.30
2022-08-05T20:26:24.744Z,96.40
2022-08-05T20:28:56.997Z,96.40
2022-08-05T20:31:36.862Z,96.50
2022-08-05T20:34:10.716Z,96.70
2022-08-05T20:36:43.471Z,96.60
2022-08-05T20:39:16.498Z,96.60
2022-08-05T20:41:47.962Z,96.60
2022-08-05T20:44:29.958Z,96.60
2022-08-05T20:47:00.445Z,96.70
2022-08-05T20:49:29.459Z,96.70
2022-08-05T20:52:02.087Z,96.90
2022-08-05T20:54:42.673Z,96.90
2022-08-05T20:57:42.255Z,96.90
2022-08-05T21:00:40.310Z,96.90
2022-08-05T21:03:07.031Z,97.00
2022-08-05T21:05:48.149Z,97.20
2022-08-05T21:08:26.754Z,97.30
2022-08-05T21:11:09.976Z,97.50
2022-08-05T21:13:47.601Z,97.50
2022-08-05T21:16:55.324Z,97.50
2022-08-05T21:28:47.731Z,97.80
2022-08-05T21:31:41.207Z,98.00
2022-08-05T21:35:30.166Z,98.00
2022-08-05T21:39:26.508Z,98.30
2022-08-05T21:42:40.891Z,98.60
2022-08-05T21:45:12.256Z,99.00
2022-08-05T21:51:25.240Z,98.80
2022-08-05T21:54:04.981Z,98.90
2022-08-05T21:57:28.491Z,99.00
2022-08-05T22:00:16.791Z,99.20
2022-08-05T22:02:45.770Z,99.10
2022-08-05T22:05:48.917Z,99.20
2022-08-05T22:14:34.265Z,99.50
2022-08-05T22:16:41.046Z,99.40
2022-08-05T22:20:01.230Z,99.40
2022-08-05T22:26:50.368Z,99.80
2022-08-05T22:29:43.796Z,99.90
2022-08-05T22:32:22.358Z,99.90
2022-08-05T22:34:51.401Z,99.90
2022-08-05T22:37:19.895Z,99.90
2022-08-05T22:40:33.508Z,99.90
2022-08-05T22:43:13.221Z,99.90
2022-08-05T22:45:41.787Z,99.90
2022-08-05T22:52:06.019Z,99.90
2022-08-05T22:54:24.657Z,99.90
2022-08-05T22:56:56.478Z,99.90
2022-08-05T23:03:04.268Z,99.90
2022-08-05T23:05:36.082Z,99.90
2022-08-05T23:08:55.497Z,99.90
2022-08-05T23:11:49.243Z,99.90
2022-08-05T23:14:22.579Z,99.90
2022-08-05T23:17:24.063Z,99.90
2022-08-05T23:19:56.138Z,99.90
2022-08-05T23:22:27.547Z,99.90
2022-08-05T23:25:51.257Z,99.90
2022-08-05T23:31:23.442Z,99.90
2022-08-05T23:34:03.712Z,99.90
2022-08-05T23:36:38.810Z,99.90
2022-08-05T23:39:32.275Z,99.90
2022-08-05T23:42:29.278Z,99.90
2022-08-05T23:45:03.091Z,99.90
2022-08-05T23:47:33.526Z,99.90
2022-08-05T23:50:20.470Z,99.90
2022-08-05T23:53:46.628Z,99.90
2022-08-05T23:56:27.477Z,99.90
2022-08-05T23:58:58.511Z,99.90
